Time;durP1;ratioP1;P1;durP2;ratioP2;P2;SDS_P1;SDS_P2;PMS_P1;PMS_P2;Temp;Humidity;BMP_temperature;BMP_pressure;BME280_temperature;BME280_humidity;BME280_pressure;Samples;Min_cycle;Max_cycle;Signal;HPM_P1;HPM_P2
2023/03/23 00:00:15;;;;;;;;;;;;;;;10.79;86.13;99692.03;5092471;28;19966;-43
2023/03/23 00:02:40;;;;;;;;;;;;;;;11.00;84.99;99690.97;5092664;28;19919;-43
2023/03/23 00:05:07;;;;;;;;;;;;;;;11.02;84.50;99684.41;5092426;28;19916;-42
2023/03/23 00:07:32;;;;;;;;;;;;;;;10.90;85.43;99689.56;5092047;28;19916;-42
2023/03/23 00:09:58;;;;;;;;;;;;;;;10.67;86.52;99686.50;5092361;28;20002;-42
2023/03/23 00:12:33;;;;;;;;;;;;;;;10.74;86.22;99687.34;5092297;28;20003;-42
2023/03/23 00:15:06;;;;;;;;;;;;;;;10.91;85.02;99691.22;5092260;28;19913;-42
2023/03/23 00:17:32;;;;;;;;;;;;;;;11.16;85.01;99687.88;5092332;28;19916;-42
2023/03/23 00:19:58;;;;;;;;;;;;;;;11.07;84.55;99694.47;5092898;28;19912;-42
2023/03/23 00:22:24;;;;;;;;;;;;;;;10.36;87.41;99690.59;5092745;28;19916;-43
2023/03/23 00:24:50;;;;;;;;;;;;;;;10.50;87.16;99692.22;5092670;28;19931;-43
2023/03/23 00:27:15;;;;;;;;;;;;;;;10.75;86.79;99686.28;5092816;28;19999;-44
2023/03/23 00:29:42;;;;;;;;;;;;;;;10.63;86.59;99688.75;5092493;28;19912;-43
2023/03/23 00:32:12;;;;;;;;;;;;;;;10.38;88.74;99685.91;5092196;28;19916;-44
2023/03/23 00:34:38;;;;;;;;;;;;;;;10.35;88.18;99689.75;5092783;28;19919;-43
2023/03/23 00:37:03;;;;;;;;;;;;;;;10.06;90.39;99682.94;5092426;28;19912;-44
2023/03/23 00:39:29;;;;;;;;;;;;;;;10.53;88.00;99683.84;5092193;28;19920;-44
2023/03/23 00:42:00;;;;;;;;;;;;;;;10.69;85.91;99679.94;5092934;28;20291;-43
2023/03/23 00:44:26;;;;;;;;;;;;;;;10.71;86.99;99674.44;5092492;28;19916;-43
2023/03/23 00:46:51;;;;;;;;;;;;;;;10.67;86.44;99675.88;5092201;28;20299;-43
2023/03/23 00:49:24;;;;;;;;;;;;;;;10.73;86.58;99673.19;5092129;28;20269;-43
2023/03/23 00:51:49;;;;;;;;;;;;;;;10.76;85.58;99672.78;5092029;28;19916;-43
2023/03/23 00:54:15;;;;;;;;;;;;;;;10.69;85.70;99668.50;5092245;28;19919;-42
2023/03/23 00:56:40;;;;;;;;;;;;;;;10.76;86.50;99674.63;5092518;28;19930;-44
2023/03/23 00:59:05;;;;;;;;;;;;;;;10.51;87.70;99669.13;5091987;28;19951;-43
2023/03/23 01:01:31;;;;;;;;;;;;;;;10.86;86.65;99674.22;5091738;28;20023;-44
2023/03/23 01:04:00;;;;;;;;;;;;;;;10.72;86.55;99674.22;5091812;28;19951;-43
2023/03/23 01:06:27;;;;;;;;;;;;;;;10.51;87.30;99667.28;5091772;28;19918;-44
2023/03/23 01:08:53;;;;;;;;;;;;;;;10.27;88.63;99668.66;5091694;28;19920;-43
2023/03/23 01:11:19;;;;;;;;;;;;;;;10.43;88.45;99677.28;5091812;28;19960;-43
2023/03/23 01:13:45;;;;;;;;;;;;;;;10.29;88.82;99673.78;5091579;28;19916;-41
2023/03/23 01:16:10;;;;;;;;;;;;;;;10.72;87.35;99673.41;5091982;28;19923;-42
2023/03/23 01:18:36;;;;;;;;;;;;;;;10.43;88.31;99675.44;5091739;28;20482;-42
2023/03/23 01:21:10;;;;;;;;;;;;;;;10.63;87.11;99672.00;5091660;28;19912;-42
2023/03/23 01:23:35;;;;;;;;;;;;;;;10.41;87.71;99669.50;5091303;28;19927;-42
2023/03/23 01:26:04;;;;;;;;;;;;;;;10.26;88.21;99663.53;5091659;28;19916;-42
2023/03/23 01:28:30;;;;;;;;;;;;;;;10.37;88.63;99669.09;5091922;28;19912;-43
2023/03/23 01:30:59;;;;;;;;;;;;;;;10.32;88.66;99674.22;5091682;28;20295;-42
2023/03/23 01:33:24;;;;;;;;;;;;;;;10.36;88.17;99680.78;5091874;28;19925;-42
2023/03/23 01:35:50;;;;;;;;;;;;;;;10.26;88.15;99675.00;5092230;28;20273;-42
2023/03/23 01:38:15;;;;;;;;;;;;;;;10.09;89.74;99671.91;5091679;28;19919;-42
2023/03/23 01:40:40;;;;;;;;;;;;;;;9.98;90.20;99669.84;5091075;28;19930;-42
2023/03/23 01:43:12;;;;;;;;;;;;;;;10.14;89.23;99674.78;5091768;28;19919;-41
2023/03/23 01:45:38;;;;;;;;;;;;;;;10.20;89.42;99670.47;5091511;28;20276;-42
2023/03/23 01:48:06;;;;;;;;;;;;;;;10.14;89.48;99676.63;5091414;28;19912;-42
2023/03/23 01:50:36;;;;;;;;;;;;;;;10.37;88.64;99668.28;5091698;28;19912;-42
2023/03/23 01:53:02;;;;;;;;;;;;;;;10.57;86.76;99679.75;5091642;28;20052;-42
2023/03/23 01:55:28;;;;;;;;;;;;;;;10.20;88.48;99673.13;5091412;28;19912;-41
2023/03/23 01:57:54;;;;;;;;;;;;;;;10.09;90.03;99676.41;5091207;28;19918;-42
2023/03/23 02:00:21;;;;;;;;;;;;;;;9.82;91.33;99670.22;5091107;28;19919;-42
2023/03/23 02:02:48;;;;;;;;;;;;;;;9.81;92.13;99672.06;5091276;28;20382;-41
2023/03/23 02:05:15;;;;;;;;;;;;;;;10.01;90.42;99677.41;5091171;28;20012;-42
2023/03/23 02:07:41;;;;;;;;;;;;;;;10.06;90.05;99677.63;5091015;28;19915;-42
2023/03/23 02:10:07;;;;;;;;;;;;;;;10.00;90.93;99677.63;5091115;28;19919;-42
2023/03/23 02:12:33;;;;;;;;;;;;;;;10.09;90.07;99682.56;5091020;28;19916;-42
2023/03/23 02:14:58;;;;;;;;;;;;;;;9.97;90.93;99676.16;5092936;28;19913;-42
2023/03/23 02:17:27;;;;;;;;;;;;;;;9.72;91.93;99682.03;5095444;28;19916;-42
2023/03/23 02:20:05;;;;;;;;;;;;;;;10.01;90.59;99687.22;5094472;28;19916;-42
2023/03/23 02:22:49;;;;;;;;;;;;;;;9.94;91.11;99687.22;5095173;28;20366;-43
2023/03/23 02:25:23;;;;;;;;;;;;;;;9.76;91.24;99688.56;5094830;28;20022;-43
2023/03/23 02:27:58;;;;;;;;;;;;;;;9.91;91.63;99693.75;5095318;28;19960;-43
2023/03/23 02:30:32;;;;;;;;;;;;;;;9.94;90.55;99679.25;5094566;28;19965;-43
2023/03/23 02:33:08;;;;;;;;;;;;;;;10.02;89.61;99684.38;5094904;28;19962;-43
2023/03/23 02:35:39;;;;;;;;;;;;;;;10.19;87.66;99679.50;5094824;28;19912;-43
2023/03/23 02:38:06;;;;;;;;;;;;;;;9.92;89.85;99678.63;5094824;28;19912;-43
2023/03/23 02:40:40;;;;;;;;;;;;;;;9.85;91.11;99677.78;5094708;28;19915;-43
2023/03/23 02:43:08;;;;;;;;;;;;;;;9.97;90.66;99676.16;5094764;28;20047;-43
2023/03/23 02:45:36;;;;;;;;;;;;;;;9.91;90.37;99684.97;5094670;28;19916;-43
2023/03/23 02:48:02;;;;;;;;;;;;;;;10.06;88.63;99688.25;5094658;28;19919;-43
2023/03/23 02:50:28;;;;;;;;;;;;;;;10.28;88.51;99680.09;5094527;28;19912;-43
2023/03/23 02:52:55;;;;;;;;;;;;;;;10.17;88.77;99685.00;5094914;28;19998;-41
2023/03/23 02:55:24;;;;;;;;;;;;;;;10.10;88.46;99689.50;5094613;28;19919;-42
2023/03/23 02:57:50;;;;;;;;;;;;;;;9.94;89.44;99684.56;5094484;28;19916;-41
2023/03/23 03:00:16;;;;;;;;;;;;;;;9.76;90.98;99688.56;5094740;28;20007;-41
2023/03/23 03:02:47;;;;;;;;;;;;;;;9.44;92.54;99691.94;5094264;28;20044;-42
2023/03/23 03:05:20;;;;;;;;;;;;;;;9.43;93.90;99701.75;5094470;28;19924;-41
2023/03/23 03:07:54;;;;;;;;;;;;;;;9.39;94.20;99697.84;5094456;28;19936;-42
2023/03/23 03:10:38;;;;;;;;;;;;;;;9.66;92.96;99700.63;5094080;28;19912;-42
2023/03/23 03:13:24;;;;;;;;;;;;;;;9.58;92.39;99701.63;5093980;28;20448;-42
2023/03/23 03:15:55;;;;;;;;;;;;;;;9.48;92.91;99703.78;5089868;28;19999;-41
2023/03/23 03:18:43;;;;;;;;;;;;;;;9.33;93.47;99702.09;5094225;28;19912;-42
2023/03/23 03:21:12;;;;;;;;;;;;;;;9.27;94.93;99707.38;5094170;28;19966;-42
2023/03/23 03:23:41;;;;;;;;;;;;;;;9.52;92.99;99713.84;5093686;28;19924;-41
2023/03/23 03:26:09;;;;;;;;;;;;;;;9.25;94.15;99715.50;5092518;28;19916;-42
2023/03/23 03:28:34;;;;;;;;;;;;;;;9.30;93.79;99713.09;5093878;28;20233;-42
2023/03/23 03:31:01;;;;;;;;;;;;;;;9.36;93.28;99717.63;5094346;28;19961;-42
2023/03/23 03:33:30;;;;;;;;;;;;;;;9.32;93.30;99716.38;5094045;28;19999;-42
2023/03/23 03:35:57;;;;;;;;;;;;;;;9.38;92.89;99714.78;5093626;28;19912;-42
2023/03/23 03:38:22;;;;;;;;;;;;;;;9.49;92.87;99716.06;5093907;28;19919;-42
2023/03/23 03:40:47;;;;;;;;;;;;;;;9.20;93.84;99728.59;5093724;28;19912;-42
2023/03/23 03:43:13;;;;;;;;;;;;;;;9.30;93.78;99726.38;5093882;28;20352;-42
2023/03/23 03:45:38;;;;;;;;;;;;;;;9.13;94.49;99730.38;5093640;28;20402;-42
2023/03/23 03:48:03;;;;;;;;;;;;;;;9.28;93.74;99720.44;5093565;28;20348;-42
2023/03/23 03:50:29;;;;;;;;;;;;;;;9.26;92.60;99719.81;5093651;28;19912;-42
2023/03/23 03:52:55;;;;;;;;;;;;;;;9.28;93.23;99719.63;5093631;28;19912;-42
2023/03/23 03:55:20;;;;;;;;;;;;;;;9.20;93.02;99723.28;5093733;28;19969;-43
2023/03/23 03:57:46;;;;;;;;;;;;;;;9.19;93.76;99726.94;5093332;28;20331;-42
2023/03/23 04:00:14;;;;;;;;;;;;;;;9.32;92.91;99728.84;5093393;28;20622;-43
2023/03/23 04:02:47;;;;;;;;;;;;;;;9.12;93.45;99721.59;5093559;28;20294;-42
2023/03/23 04:05:13;;;;;;;;;;;;;;;8.92;93.72;99721.44;5092670;28;19920;-42
2023/03/23 04:07:39;;;;;;;;;;;;;;;8.95;93.96;99725.56;5093276;28;19935;-42
2023/03/23 04:10:08;;;;;;;;;;;;;;;8.86;92.22;99682.41;5093035;28;19912;-42
2023/03/23 04:12:34;;;;;;;;;;;;;;;9.12;92.35;99721.59;5093097;28;19912;-42
2023/03/23 04:15:00;;;;;;;;;;;;;;;8.96;93.04;99732.50;5093208;28;19915;-42
2023/03/23 04:17:28;;;;;;;;;;;;;;;8.79;94.17;99719.50;5092837;28;20353;-41
2023/03/23 04:19:56;;;;;;;;;;;;;;;8.85;94.17;99725.88;5092965;28;19918;-41
2023/03/23 04:22:24;;;;;;;;;;;;;;;8.92;93.35;99734.72;5094497;28;19912;-42
2023/03/23 04:24:51;;;;;;;;;;;;;;;8.95;93.50;99730.88;5092611;28;19931;-42
2023/03/23 04:27:16;;;;;;;;;;;;;;;8.88;93.76;99725.50;5092825;28;19974;-41
2023/03/23 04:29:42;;;;;;;;;;;;;;;8.83;94.13;99732.38;5092847;28;19919;-41
2023/03/23 04:32:07;;;;;;;;;;;;;;;8.86;93.70;99734.66;5092697;28;20030;-41
2023/03/23 04:34:35;;;;;;;;;;;;;;;8.93;93.48;99740.81;5092432;28;20019;-41
2023/03/23 04:37:00;;;;;;;;;;;;;;;8.82;94.12;99734.22;5092110;28;20063;-41
2023/03/23 04:39:28;;;;;;;;;;;;;;;8.80;94.06;99736.25;5092725;28;19943;-42
2023/03/23 04:41:54;;;;;;;;;;;;;;;8.67;94.69;99731.66;5092406;28;19974;-42
2023/03/23 04:44:21;;;;;;;;;;;;;;;8.86;93.89;99732.03;5092078;28;19958;-42
2023/03/23 04:46:49;;;;;;;;;;;;;;;8.85;94.25;99739.13;5092021;28;19923;-42
2023/03/23 04:49:20;;;;;;;;;;;;;;;8.78;94.65;99738.28;5091821;28;19916;-42
2023/03/23 04:51:46;;;;;;;;;;;;;;;8.88;94.15;99733.47;5092081;28;20461;-42
2023/03/23 04:54:12;;;;;;;;;;;;;;;9.07;93.21;99745.22;5091996;28;19912;-42
2023/03/23 04:56:37;;;;;;;;;;;;;;;9.25;91.99;99747.38;5091782;28;19920;-42
2023/03/23 04:59:03;;;;;;;;;;;;;;;9.00;92.94;99749.66;5092115;28;19916;-36
2023/03/23 05:01:28;;;;;;;;;;;;;;;9.11;92.49;99748.31;5092141;28;20286;-37
2023/03/23 05:03:54;;;;;;;;;;;;;;;9.02;93.66;99739.66;5091972;28;19912;-36
2023/03/23 05:06:19;;;;;;;;;;;;;;;8.99;94.14;99746.19;5091873;28;19927;-36
2023/03/23 05:08:45;;;;;;;;;;;;;;;9.12;93.39;99739.34;5091989;28;20281;-42
2023/03/23 05:11:10;;;;;;;;;;;;;;;9.22;92.71;99749.63;5091008;28;19919;-42
2023/03/23 05:13:35;;;;;;;;;;;;;;;9.35;92.17;99744.41;5091336;28;19935;-42
2023/03/23 05:16:04;;;;;;;;;;;;;;;9.24;93.92;99751.06;5091792;28;20279;-42
2023/03/23 05:18:29;;;;;;;;;;;;;;;9.26;92.99;99749.03;5089505;28;19912;-41
2023/03/23 05:20:55;;;;;;;;;;;;;;;9.30;92.64;99742.31;5091621;28;19920;-42
2023/03/23 05:23:25;;;;;;;;;;;;;;;10.80;100.00;99747.72;5091963;28;20372;-40
2023/03/23 05:25:54;;;;;;;;;;;;;;;11.00;85.92;99747.72;5092022;28;19924;-35
2023/03/23 05:28:21;;;;;;;;;;;;;;;10.48;85.49;99747.50;5091540;28;19919;-38
2023/03/23 05:30:49;;;;;;;;;;;;;;;10.39;86.01;99762.00;5090415;28;20501;-35
2023/03/23 05:33:14;;;;;;;;;;;;;;;10.02;88.20;99764.13;5091162;28;20320;-37
2023/03/23 05:35:40;;;;;;;;;;;;;;;10.15;88.45;99766.84;5091168;28;19981;-35
2023/03/23 05:38:05;;;;;;;;;;;;;;;10.01;86.82;99770.44;5091110;28;19960;-40
2023/03/23 05:40:31;;;;;;;;;;;;;;;10.11;86.28;99775.41;5092254;28;19919;-37
2023/03/23 05:42:58;;;;;;;;;;;;;;;10.06;87.37;99777.84;5090316;28;19913;-41
2023/03/23 05:45:24;;;;;;;;;;;;;;;9.78;88.55;99781.41;5090772;28;19919;-43
2023/03/23 05:47:49;;;;;;;;;;;;;;;9.96;89.25;99784.34;5091297;28;19912;-37
2023/03/23 05:50:15;;;;;;;;;;;;;;;10.05;87.97;99781.50;5090590;28;19918;-35
2023/03/23 05:52:41;;;;;;;;;;;;;;;10.18;87.08;99787.72;5090548;28;19970;-35
2023/03/23 05:55:07;;;;;;;;;;;;;;;10.22;86.01;99785.47;5089533;28;19912;-36
2023/03/23 05:57:33;;;;;;;;;;;;;;;10.31;86.32;99788.78;5090556;28;20007;-42
2023/03/23 05:59:59;;;;;;;;;;;;;;;10.18;86.66;99797.50;5091399;28;19983;-36
2023/03/23 06:02:28;;;;;;;;;;;;;;;10.91;83.80;99796.91;5091359;28;19912;-36
2023/03/23 06:04:57;;;;;;;;;;;;;;;10.85;82.73;99795.88;5091088;28;19923;-36
2023/03/23 06:07:22;;;;;;;;;;;;;;;11.34;80.76;99801.78;5091452;28;20061;-36
2023/03/23 06:09:49;;;;;;;;;;;;;;;11.60;79.12;99810.75;5091290;28;20387;-42
2023/03/23 06:12:15;;;;;;;;;;;;;;;11.84;77.48;99814.59;5091258;28;19919;-42
2023/03/23 06:14:40;;;;;;;;;;;;;;;12.05;81.77;99816.19;5090652;28;19912;-42
2023/03/23 06:17:06;;;;;;;;;;;;;;;12.17;78.27;99809.16;5091002;28;19919;-42
2023/03/23 06:19:31;;;;;;;;;;;;;;;12.70;75.16;99810.72;5091147;28;19912;-42
2023/03/23 06:21:56;;;;;;;;;;;;;;;12.61;73.99;99812.03;5091485;28;19981;-42
2023/03/23 06:24:22;;;;;;;;;;;;;;;12.99;72.61;99811.13;5093636;28;20319;-43
2023/03/23 06:26:48;;;;;;;;;;;;;;;13.12;71.92;99811.03;5094009;28;20288;-43
2023/03/23 06:29:14;;;;;;;;;;;;;;;13.28;71.36;99809.66;5090118;28;20408;-42
2023/03/23 06:31:44;;;;;;;;;;;;;;;13.05;72.15;99815.59;5090752;28;19934;-41
2023/03/23 06:34:11;;;;;;;;;;;;;;;12.71;72.93;99817.69;5090576;28;19936;-42
2023/03/23 06:36:38;;;;;;;;;;;;;;;12.86;71.89;99818.19;5091103;28;19919;-42
2023/03/23 06:39:06;;;;;;;;;;;;;;;13.07;70.88;99818.88;5091146;28;19916;-43
2023/03/23 06:41:32;;;;;;;;;;;;;;;12.79;72.02;99828.09;5091271;28;19958;-38
2023/03/23 06:43:58;;;;;;;;;;;;;;;12.72;72.29;99827.34;5090955;28;19913;-43
2023/03/23 06:46:23;;;;;;;;;;;;;;;13.10;71.54;99831.81;5090870;28;20493;-42
2023/03/23 06:48:50;;;;;;;;;;;;;;;13.32;69.99;99821.56;5090652;28;19912;-43
2023/03/23 06:51:15;;;;;;;;;;;;;;;13.57;68.90;99826.88;5090865;28;20005;-43
2023/03/23 06:53:41;;;;;;;;;;;;;;;13.81;69.29;99821.72;5090695;28;19974;-43
2023/03/23 06:56:06;;;;;;;;;;;;;;;13.67;70.00;99826.41;5090828;28;19919;-43
2023/03/23 06:58:32;;;;;;;;;;;;;;;13.94;68.60;99824.25;5090165;28;19988;-42
2023/03/23 07:00:58;;;;;;;;;;;;;;;13.97;69.90;99825.63;5091580;28;19912;-42
2023/03/23 07:03:23;;;;;;;;;;;;;;;13.22;71.99;99838.06;5094220;28;19923;-43
2023/03/23 07:05:49;;;;;;;;;;;;;;;13.74;69.03;99834.34;5093710;28;19923;-43
2023/03/23 07:08:15;;;;;;;;;;;;;;;14.07;68.20;99842.00;5093928;28;19961;-43
2023/03/23 07:10:40;;;;;;;;;;;;;;;14.07;67.23;99836.66;5094058;28;19916;-42
2023/03/23 07:13:06;;;;;;;;;;;;;;;14.45;66.09;99836.38;5093927;28;20051;-43
2023/03/23 07:15:32;;;;;;;;;;;;;;;14.62;64.20;99843.78;5094585;28;19912;-42
2023/03/23 07:17:57;;;;;;;;;;;;;;;14.78;64.48;99836.97;5093891;28;20018;-44
2023/03/23 07:20:22;;;;;;;;;;;;;;;14.42;65.69;99834.13;5093783;28;19912;-43
2023/03/23 07:22:48;;;;;;;;;;;;;;;14.31;66.34;99839.44;5093448;28;19916;-43
2023/03/23 07:25:13;;;;;;;;;;;;;;;14.61;67.53;99842.97;5093677;28;20423;-42
2023/03/23 07:27:39;;;;;;;;;;;;;;;15.13;64.16;99838.91;5094128;28;20288;-42
2023/03/23 07:30:04;;;;;;;;;;;;;;;15.71;60.90;99842.66;5094422;28;20134;-43
2023/03/23 07:32:30;;;;;;;;;;;;;;;15.71;62.26;99840.00;5094081;28;19912;-44
2023/03/23 07:34:55;;;;;;;;;;;;;;;16.64;59.63;99853.41;5093731;28;20349;-43
2023/03/23 07:37:21;;;;;;;;;;;;;;;16.38;58.63;99843.00;5093320;28;19913;-43
2023/03/23 07:39:46;;;;;;;;;;;;;;;17.50;57.22;99845.19;5092960;28;19919;-44
2023/03/23 07:42:11;;;;;;;;;;;;;;;16.84;56.52;99847.63;5093198;28;20010;-43
2023/03/23 07:44:37;;;;;;;;;;;;;;;17.52;56.53;99851.94;5093262;28;19938;-43
2023/03/23 07:47:02;;;;;;;;;;;;;;;17.75;54.94;99817.84;5091594;28;19916;-42
2023/03/23 07:49:28;;;;;;;;;;;;;;;17.69;54.16;99849.25;5092455;28;19916;-42
2023/03/23 07:51:53;;;;;;;;;;;;;;;18.40;52.17;99847.72;5092876;28;19916;-43
2023/03/23 07:54:19;;;;;;;;;;;;;;;19.23;49.41;99842.03;5092954;28;19912;-42
2023/03/23 07:56:45;;;;;;;;;;;;;;;19.33;50.40;99844.84;5093016;28;20398;-42
2023/03/23 07:59:11;;;;;;;;;;;;;;;19.46;48.95;99847.09;5092690;28;19919;-42
2023/03/23 08:01:36;;;;;;;;;;;;;;;19.87;48.47;99846.53;5093046;28;20372;-43
2023/03/23 08:04:02;;;;;;;;;;;;;;;19.50;49.81;99848.19;5092875;28;19919;-43
2023/03/23 08:06:27;;;;;;;;;;;;;;;19.61;49.42;99843.69;5092771;28;20341;-43
2023/03/23 08:08:53;;;;;;;;;;;;;;;19.75;48.27;99845.94;5092975;28;19920;-42
2023/03/23 08:11:19;;;;;;;;;;;;;;;19.68;47.91;99843.44;5092569;28;19990;-42
2023/03/23 08:13:44;;;;;;;;;;;;;;;19.56;49.25;99845.53;5091907;28;19928;-42
2023/03/23 08:16:10;;;;;;;;;;;;;;;20.20;47.22;99847.22;5092461;28;19999;-43
2023/03/23 08:18:36;;;;;;;;;;;;;;;20.41;47.30;99848.09;5092516;28;19999;-43
2023/03/23 08:21:04;;;;;;;;;;;;;;;20.95;45.67;99846.88;5092501;28;19912;-42
2023/03/23 08:23:30;;;;;;;;;;;;;;;21.77;42.49;99839.50;5091680;28;19920;-42
2023/03/23 08:25:55;;;;;;;;;;;;;;;22.26;42.94;99840.72;5092312;28;19923;-42
2023/03/23 08:28:21;;;;;;;;;;;;;;;22.64;42.59;99832.91;5092309;28;19991;-41
2023/03/23 08:30:46;;;;;;;;;;;;;;;23.15;40.06;99839.84;5092116;28;19950;-41
2023/03/23 08:33:12;;;;;;;;;;;;;;;23.04;40.38;99839.16;5092165;28;20019;-41
2023/03/23 08:35:37;;;;;;;;;;;;;;;22.76;41.60;99827.13;5091904;28;20032;-41
2023/03/23 08:38:03;;;;;;;;;;;;;;;22.81;42.01;99829.81;5092005;28;19985;-41
2023/03/23 08:40:28;;;;;;;;;;;;;;;22.02;41.51;99835.88;5092027;28;20411;-41
2023/03/23 08:42:54;;;;;;;;;;;;;;;21.29;43.26;99837.13;5091623;28;19965;-41
2023/03/23 08:45:22;;;;;;;;;;;;;;;21.65;42.62;99834.41;5091988;28;20288;-41
2023/03/23 08:47:51;;;;;;;;;;;;;;;21.71;42.29;99828.97;5091996;28;20248;-41
2023/03/23 08:50:17;;;;;;;;;;;;;;;21.78;41.62;99829.47;5091981;28;19919;-41
2023/03/23 08:52:43;;;;;;;;;;;;;;;21.94;40.68;99841.09;5091931;28;19912;-40
2023/03/23 08:55:09;;;;;;;;;;;;;;;22.12;41.96;99832.31;5092011;28;20315;-41
2023/03/23 08:57:35;;;;;;;;;;;;;;;22.98;40.87;99835.63;5091812;28;19919;-42
2023/03/23 09:00:14;;;;;;;;;;;;;;;23.46;38.26;99839.59;5092119;28;19962;-41
2023/03/23 09:02:40;;;;;;;;;;;;;;;23.31;38.01;99840.56;5091996;28;19912;-42
2023/03/23 09:05:06;;;;;;;;;;;;;;;23.92;37.24;99830.97;5091684;28;19944;-41
2023/03/23 09:07:32;;;;;;;;;;;;;;;24.09;37.11;99834.00;5091816;28;19948;-41
2023/03/23 09:09:57;;;;;;;;;;;;;;;24.54;36.91;99831.81;5091662;28;20404;-41
2023/03/23 09:12:23;;;;;;;;;;;;;;;24.08;37.38;99834.31;5091690;28;19916;-41
2023/03/23 09:14:48;;;;;;;;;;;;;;;23.29;37.73;99834.59;5091605;28;19919;-41
2023/03/23 09:17:14;;;;;;;;;;;;;;;22.86;37.67;99834.38;5091061;28;19923;-41
2023/03/23 09:19:39;;;;;;;;;;;;;;;23.09;36.94;99830.16;5091029;28;19919;-41
2023/03/23 09:22:05;;;;;;;;;;;;;;;22.98;38.04;99827.50;5091051;28;20279;-41
2023/03/23 09:24:31;;;;;;;;;;;;;;;22.58;36.79;99826.72;5091038;28;20291;-41
2023/03/23 09:26:58;;;;;;;;;;;;;;;22.36;38.24;99821.69;5091312;28;20007;-42
2023/03/23 09:29:23;;;;;;;;;;;;;;;22.32;38.53;99817.91;5091260;28;19916;-40
2023/03/23 09:31:48;;;;;;;;;;;;;;;21.46;39.00;99823.34;5091013;28;20393;-41
2023/03/23 09:34:15;;;;;;;;;;;;;;;22.12;39.08;99816.06;5090708;28;19919;-42
2023/03/23 09:36:40;;;;;;;;;;;;;;;22.42;37.32;99815.13;5090501;28;19912;-41
2023/03/23 09:39:11;;;;;;;;;;;;;;;22.59;38.42;99824.78;5091066;28;19912;-41
2023/03/23 09:41:55;;;;;;;;;;;;;;;22.88;37.57;99816.72;5090983;28;20406;-41
2023/03/23 09:44:21;;;;;;;;;;;;;;;23.87;36.40;99812.00;5090689;28;19989;-41
2023/03/23 09:47:03;;;;;;;;;;;;;;;24.28;34.25;99812.28;5090973;28;20383;-41
2023/03/23 09:49:32;;;;;;;;;;;;;;;23.90;34.30;99806.81;5091140;28;19954;-41
2023/03/23 09:52:02;;;;;;;;;;;;;;;23.40;35.59;99819.84;5091273;28;19916;-40
2023/03/23 09:54:30;;;;;;;;;;;;;;;21.94;39.44;99803.16;5091585;28;20010;-41
2023/03/23 09:56:57;;;;;;;;;;;;;;;21.84;38.97;99798.59;5091063;28;19913;-40
2023/03/23 09:59:37;;;;;;;;;;;;;;;21.23;40.01;99808.47;5090703;28;19913;-41
2023/03/23 10:02:14;;;;;;;;;;;;;;;21.94;40.86;99795.03;5091261;28;19912;-41
2023/03/23 10:04:51;;;;;;;;;;;;;;;23.09;37.76;99801.09;5090865;28;20295;-42
2023/03/23 10:07:19;;;;;;;;;;;;;;;23.23;36.12;99793.13;5090757;28;19920;-42
2023/03/23 10:09:46;;;;;;;;;;;;;;;22.68;36.88;99800.63;5090902;28;20053;-40
2023/03/23 10:12:22;;;;;;;;;;;;;;;22.69;37.10;99799.50;5090882;28;19919;-42
2023/03/23 10:15:06;;;;;;;;;;;;;;;22.80;35.88;99792.91;5091012;28;19912;-40
2023/03/23 10:17:34;;;;;;;;;;;;;;;22.81;36.83;99797.25;5090797;28;19919;-41
2023/03/23 10:19:59;;;;;;;;;;;;;;;23.05;35.99;99789.19;5090631;28;20312;-41
2023/03/23 10:22:47;;;;;;;;;;;;;;;23.59;35.89;99790.03;5090783;28;19923;-35
2023/03/23 10:25:12;;;;;;;;;;;;;;;23.93;35.01;99786.38;5090627;28;19924;-36
2023/03/23 10:27:38;;;;;;;;;;;;;;;23.68;34.55;99785.56;5090349;28;19923;-38
2023/03/23 10:30:13;;;;;;;;;;;;;;;23.64;33.86;99789.16;5090773;28;19916;-35
2023/03/23 10:32:57;;;;;;;;;;;;;;;22.41;35.62;99786.41;5090790;28;19969;-36
2023/03/23 10:35:29;;;;;;;;;;;;;;;23.10;34.63;99786.44;5091435;28;20054;-36
2023/03/23 10:38:10;;;;;;;;;;;;;;;23.90;33.45;99771.47;5093137;28;20003;-36
2023/03/23 10:40:38;;;;;;;;;;;;;;;24.33;32.18;99781.50;5094327;28;19916;-36
2023/03/23 10:43:04;;;;;;;;;;;;;;;24.39;31.73;99774.91;5094254;28;19923;-36
2023/03/23 10:45:32;;;;;;;;;;;;;;;24.18;31.71;99771.66;5094445;28;19920;-35
2023/03/23 10:48:17;;;;;;;;;;;;;;;24.53;31.33;99773.06;5094495;28;19960;-35
2023/03/23 10:50:44;;;;;;;;;;;;;;;24.06;31.72;99765.84;5094293;28;20428;-36
2023/03/23 10:53:20;;;;;;;;;;;;;;;24.03;32.46;99759.09;5093616;28;20403;-36
2023/03/23 10:55:46;;;;;;;;;;;;;;;23.69;32.38;99760.03;5094031;28;19912;-36
2023/03/23 10:58:22;;;;;;;;;;;;;;;22.50;34.35;99764.91;5094032;28;20303;-36
2023/03/23 11:00:47;;;;;;;;;;;;;;;22.45;34.22;99759.56;5093845;28;19912;-36
2023/03/23 11:03:17;;;;;;;;;;;;;;;22.12;34.30;99766.50;5094253;28;19919;-36
2023/03/23 11:05:42;;;;;;;;;;;;;;;22.66;33.92;99754.78;5093794;28;20384;-36
2023/03/23 11:08:12;;;;;;;;;;;;;;;23.43;34.28;99756.78;5094056;28;19916;-37
2023/03/23 11:10:42;;;;;;;;;;;;;;;23.55;33.28;99756.38;5093707;28;19912;-36
2023/03/23 11:13:13;;;;;;;;;;;;;;;24.14;31.96;99749.69;5093672;28;19951;-36
2023/03/23 11:15:40;;;;;;;;;;;;;;;22.23;33.26;99758.00;5093553;28;19919;-35
2023/03/23 11:18:09;;;;;;;;;;;;;;;21.25;34.94;99745.94;5093448;28;19912;-36
2023/03/23 11:20:36;;;;;;;;;;;;;;;21.25;35.05;99746.75;5093393;28;19919;-36
2023/03/23 11:23:22;;;;;;;;;;;;;;;21.13;35.16;99751.63;5093460;28;19916;-37
2023/03/23 11:25:56;;;;;;;;;;;;;;;20.58;35.78;99754.09;5092836;28;20310;-36
2023/03/23 11:28:22;;;;;;;;;;;;;;;20.17;35.99;99750.50;5093446;28;19927;-37
2023/03/23 11:30:47;;;;;;;;;;;;;;;20.88;35.84;99750.56;5093372;28;20379;-35
2023/03/23 11:33:15;;;;;;;;;;;;;;;21.63;35.21;99741.81;5093336;28;19913;-36
2023/03/23 11:35:43;;;;;;;;;;;;;;;22.06;34.77;99746.75;5093562;28;20019;-36
2023/03/23 11:38:15;;;;;;;;;;;;;;;22.77;34.23;99750.06;5092891;28;19912;-36
2023/03/23 11:40:46;;;;;;;;;;;;;;;22.42;34.01;99738.41;5093068;28;19919;-36
2023/03/23 11:43:19;;;;;;;;;;;;;;;22.12;34.59;99739.38;5092755;28;19915;-36
2023/03/23 11:46:03;;;;;;;;;;;;;;;21.44;36.89;99747.00;5092719;28;19917;-36
2023/03/23 11:48:35;;;;;;;;;;;;;;;20.45;40.12;99738.41;5091672;28;19949;-36
2023/03/23 11:51:01;;;;;;;;;;;;;;;20.51;41.06;99745.44;5092614;28;19919;-35
2023/03/23 11:53:40;;;;;;;;;;;;;;;21.21;40.26;99747.56;5092696;28;19912;-36
2023/03/23 11:56:11;;;;;;;;;;;;;;;21.16;39.59;99745.69;5093144;28;19912;-36
2023/03/23 11:58:37;;;;;;;;;;;;;;;21.12;39.55;99738.41;5093057;28;20003;-36
2023/03/23 12:01:02;;;;;;;;;;;;;;;20.37;41.58;99731.63;5092717;28;20300;-36
2023/03/23 12:03:46;;;;;;;;;;;;;;;19.42;43.57;99738.06;5092694;28;19913;-36
2023/03/23 12:06:12;;;;;;;;;;;;;;;18.98;44.98;99732.09;5092524;28;20025;-36
2023/03/23 12:08:38;;;;;;;;;;;;;;;19.13;45.12;99727.66;5092468;28;19953;-36
2023/03/23 12:11:19;;;;;;;;;;;;;;;19.78;43.55;99721.22;5092524;28;19916;-36
2023/03/23 12:14:03;;;;;;;;;;;;;;;19.30;43.81;99727.44;5092388;28;20007;-36
2023/03/23 12:16:54;;;;;;;;;;;;;;;19.08;43.91;99730.28;5092217;28;20360;-35
2023/03/23 12:19:52;;;;;;;;;;;;;;;19.00;44.02;99738.88;5083567;28;20432;-35
2023/03/23 12:22:23;;;;;;;;;;;;;;;18.28;45.51;99732.84;5079692;28;20011;-36
2023/03/23 12:24:55;;;;;;;;;;;;;;;18.43;45.42;99725.97;5091738;28;19932;-37
2023/03/23 12:27:24;;;;;;;;;;;;;;;18.51;44.63;99723.63;5092329;28;19916;-36
2023/03/23 12:30:02;;;;;;;;;;;;;;;18.45;44.87;99723.81;5092139;28;20269;-36
2023/03/23 12:32:43;;;;;;;;;;;;;;;18.93;44.04;99727.50;5091855;28;20307;-35
2023/03/23 12:35:31;;;;;;;;;;;;;;;18.80;44.07;99726.06;5092502;28;19912;-35
2023/03/23 12:38:02;;;;;;;;;;;;;;;18.72;44.23;99729.19;5081460;28;19919;-36
2023/03/23 12:40:40;;;;;;;;;;;;;;;18.23;45.14;99729.28;5091958;28;19948;-35
2023/03/23 12:43:12;;;;;;;;;;;;;;;18.97;44.07;99723.22;5092161;28;19964;-37
2023/03/23 12:45:49;;;;;;;;;;;;;;;19.00;44.04;99727.25;5091759;28;20030;-37
2023/03/23 12:48:22;;;;;;;;;;;;;;;19.33;42.40;99720.72;5091970;28;19919;-36
2023/03/23 12:51:06;;;;;;;;;;;;;;;19.03;43.51;99719.47;5091743;28;19912;-36
2023/03/23 12:53:52;;;;;;;;;;;;;;;18.81;43.91;99734.94;5092055;28;19912;-35